Dover, Michigan
Current Conditions -  °F | °C
As of 1:53 PM on Friday 21 Nov 2014 (Local Time) from KARB Reporting Station
Clear Clear  
Wind Chill: 18°   Ceiling: Unl
Heat Index: 26°   Visibility: 10mi
Dew Point: 10°   Wind: 8mph
Humidity: 51%   Direction: 230°SW
Pressure: 30.44"   Gusts: NA
Location:  42.3528°N, 83.8974°W
Report Text: KARB 211853Z 23007KT 10SM CLR M03/M12 A3044 RMK AO2 SLP321 T10331122
Loading
Personal Weather Stations






























Interactive Weather Map New forecast layout! Learn more

10-Day Weather Forecast

Advertisements
Track Severe Weather on mobile